createdAt,value
2023-04-19T00:00:39.171Z,102276.63
2023-04-19T00:03:08.015Z,102273.56
2023-04-19T00:05:35.526Z,102269.44
2023-04-19T00:08:02.687Z,102272.75
2023-04-19T00:10:30.105Z,102276.25
2023-04-19T00:12:57.067Z,102283.03
2023-04-19T00:15:24.068Z,102284.25
2023-04-19T00:17:51.260Z,102265.38
2023-04-19T00:20:18.440Z,102268.50
2023-04-19T00:22:45.340Z,102265.00
2023-04-19T00:25:12.535Z,102264.16
2023-04-19T00:27:39.604Z,102260.69
2023-04-19T00:30:07.613Z,102269.78
2023-04-19T00:32:34.679Z,102255.16
2023-04-19T00:35:01.725Z,102260.94
2023-04-19T00:37:29.515Z,102268.56
2023-04-19T00:39:56.605Z,102265.91
2023-04-19T00:42:23.655Z,102264.88
2023-04-19T00:44:50.874Z,102269.78
2023-04-19T00:47:18.190Z,102266.09
2023-04-19T00:49:46.225Z,102256.88
2023-04-19T00:52:13.638Z,102270.22
2023-04-19T00:54:42.545Z,102266.34
2023-04-19T00:57:09.723Z,102267.09
2023-04-19T00:59:37.285Z,102265.25
2023-04-19T01:02:04.401Z,102262.53
2023-04-19T01:04:31.662Z,102267.84
2023-04-19T01:06:59.294Z,102263.91
2023-04-19T01:09:26.569Z,102276.16
2023-04-19T01:11:54.110Z,102267.69
2023-04-19T01:14:21.277Z,102274.88
2023-04-19T01:16:48.255Z,102260.44
2023-04-19T01:19:16.710Z,102258.59
2023-04-19T01:21:43.839Z,102256.03
2023-04-19T01:24:11.184Z,102269.56
2023-04-19T01:26:38.401Z,102261.66
2023-04-19T01:29:05.418Z,102261.41
2023-04-19T01:31:32.443Z,102262.75
2023-04-19T01:33:59.404Z,102264.31
2023-04-19T01:36:27.946Z,102264.22
2023-04-19T01:38:56.419Z,102262.22
2023-04-19T01:41:27.134Z,102247.50
2023-04-19T01:43:54.612Z,102267.16
2023-04-19T01:46:21.608Z,102252.63
2023-04-19T01:48:48.778Z,102258.69
2023-04-19T01:51:17.546Z,102262.91
2023-04-19T01:53:44.618Z,102251.50
2023-04-19T01:56:11.634Z,102249.94
2023-04-19T01:58:38.876Z,102245.34
2023-04-19T02:01:06.058Z,102248.50
2023-04-19T02:03:33.378Z,102238.09
2023-04-19T02:06:00.764Z,102235.50
2023-04-19T02:08:27.826Z,102240.19
2023-04-19T02:10:54.799Z,102246.69
2023-04-19T02:13:22.122Z,102250.91
2023-04-19T02:15:49.317Z,102234.13
2023-04-19T02:18:17.505Z,102244.47
2023-04-19T02:20:44.513Z,102234.00
2023-04-19T02:23:12.707Z,102242.53
2023-04-19T02:25:39.822Z,102227.47
2023-04-19T02:28:07.215Z,102236.44
2023-04-19T02:30:34.223Z,102237.44
2023-04-19T02:33:01.854Z,102217.69
2023-04-19T02:35:29.195Z,102225.03
2023-04-19T02:38:00.196Z,102230.22
2023-04-19T02:40:27.349Z,102223.94
2023-04-19T02:42:54.371Z,102221.81
2023-04-19T02:45:22.702Z,102218.00
2023-04-19T02:47:49.755Z,102221.84
2023-04-19T02:50:17.380Z,102224.03
2023-04-19T02:52:48.940Z,102222.22
2023-04-19T02:55:16.183Z,102216.78
2023-04-19T02:57:44.366Z,102208.16
2023-04-19T03:00:12.419Z,102206.03
2023-04-19T03:02:43.847Z,102198.75
2023-04-19T03:05:11.362Z,102209.91
2023-04-19T03:07:38.542Z,102211.91
2023-04-19T03:10:06.849Z,102201.78
2023-04-19T03:12:34.051Z,102216.59
2023-04-19T03:15:01.256Z,102207.47
2023-04-19T03:17:28.452Z,102205.81
2023-04-19T03:19:56.822Z,102198.72
2023-04-19T03:22:24.945Z,102190.44
2023-04-19T03:24:52.759Z,102198.56
2023-04-19T03:27:22.914Z,102186.97
2023-04-19T03:29:57.870Z,102193.47
2023-04-19T03:32:26.097Z,102191.28
2023-04-19T03:34:53.411Z,102193.28
2023-04-19T03:37:20.312Z,102178.03
2023-04-19T03:39:47.418Z,102189.00
2023-04-19T03:42:19.492Z,102171.91
2023-04-19T03:45:08.138Z,102169.59
2023-04-19T03:47:40.388Z,102185.88
2023-04-19T03:50:08.932Z,102167.81
2023-04-19T03:52:38.290Z,102175.59
2023-04-19T03:55:06.206Z,102177.94
2023-04-19T03:57:37.511Z,102173.63
2023-04-19T04:00:13.120Z,102168.16
2023-04-19T04:02:43.438Z,102170.00
2023-04-19T04:05:13.099Z,102170.81
2023-04-19T04:07:41.036Z,102170.31
2023-04-19T04:10:09.306Z,102166.50
2023-04-19T04:12:41.514Z,102163.84
2023-04-19T04:15:11.131Z,102163.84
2023-04-19T04:17:43.228Z,102150.44
2023-04-19T04:20:13.374Z,102158.72
2023-04-19T04:22:46.141Z,102153.56
2023-04-19T04:25:15.932Z,102152.59
2023-04-19T04:27:46.645Z,102155.56
2023-04-19T04:30:18.483Z,102168.81
2023-04-19T04:32:46.937Z,102157.53
2023-04-19T04:35:14.253Z,102143.63
2023-04-19T04:37:54.083Z,102146.59
2023-04-19T04:40:21.500Z,102147.91
2023-04-19T04:42:49.470Z,102149.41
2023-04-19T04:45:18.528Z,102140.78
2023-04-19T04:47:48.947Z,102137.78
2023-04-19T04:50:16.941Z,102138.44
2023-04-19T04:52:44.417Z,102122.34
2023-04-19T04:55:16.947Z,102133.63
2023-04-19T04:57:45.161Z,102133.75
2023-04-19T05:00:18.385Z,102135.25
2023-04-19T05:02:55.118Z,102133.25
2023-04-19T05:05:23.992Z,102127.41
2023-04-19T05:07:50.859Z,102130.22
2023-04-19T05:10:18.105Z,102121.91
2023-04-19T05:12:47.564Z,102116.28
2023-04-19T05:15:14.838Z,102121.72
2023-04-19T05:17:48.283Z,102116.88
2023-04-19T05:20:15.542Z,102112.06
2023-04-19T05:22:43.984Z,102112.38
2023-04-19T05:25:12.034Z,102111.00
2023-04-19T05:27:39.911Z,102115.63
2023-04-19T05:30:08.175Z,102103.47
2023-04-19T05:32:40.302Z,102109.91
2023-04-19T05:35:11.439Z,102096.44
2023-04-19T05:37:39.487Z,102088.59
2023-04-19T05:40:10.433Z,102100.66
2023-04-19T05:42:38.723Z,102099.28
2023-04-19T05:45:07.412Z,102095.75
2023-04-19T05:47:34.891Z,102109.16
2023-04-19T05:50:20.681Z,102091.19
2023-04-19T05:53:11.039Z,102098.50
2023-04-19T05:55:38.409Z,102103.56
2023-04-19T05:58:06.054Z,102098.19
2023-04-19T06:00:33.434Z,102095.44
2023-04-19T06:03:08.478Z,102099.69
2023-04-19T06:05:35.919Z,102094.47
2023-04-19T06:08:03.635Z,102091.06
2023-04-19T06:10:40.280Z,102084.22
2023-04-19T06:13:16.729Z,102091.13
2023-04-19T06:15:44.066Z,102091.03
2023-04-19T06:18:19.411Z,102095.06
2023-04-19T06:20:47.425Z,102082.53
2023-04-19T06:23:15.114Z,102081.78
2023-04-19T06:25:42.940Z,102088.47
2023-04-19T06:28:10.820Z,102081.22
2023-04-19T06:30:37.925Z,102081.47
2023-04-19T06:33:04.937Z,102081.00
2023-04-19T06:35:32.629Z,102078.03
2023-04-19T06:37:59.854Z,102074.06
2023-04-19T06:40:28.922Z,102074.13
2023-04-19T06:42:56.420Z,102070.31
2023-04-19T06:45:23.747Z,102071.13
2023-04-19T06:47:51.134Z,102059.50
2023-04-19T06:50:18.433Z,102063.94
2023-04-19T06:52:45.397Z,102054.84
2023-04-19T06:55:12.708Z,102046.09
2023-04-19T06:57:39.662Z,102039.88
2023-04-19T07:00:07.908Z,102028.09
2023-04-19T07:02:35.481Z,102029.00
2023-04-19T07:05:03.838Z,102025.16
2023-04-19T07:07:31.113Z,102033.66
2023-04-19T07:09:58.073Z,102017.69
2023-04-19T07:12:25.195Z,102012.19
2023-04-19T07:14:56.436Z,102004.25
2023-04-19T07:17:24.893Z,102011.88
2023-04-19T07:19:52.092Z,101998.97
2023-04-19T07:22:19.014Z,101994.44
2023-04-19T07:24:45.973Z,101991.16
2023-04-19T07:27:14.339Z,101982.69
2023-04-19T07:29:41.695Z,101997.03
2023-04-19T07:32:09.033Z,101979.25
2023-04-19T07:34:38.151Z,101979.78
2023-04-19T07:37:05.351Z,101990.81
2023-04-19T07:39:33.095Z,101984.06
2023-04-19T07:42:01.479Z,101982.66
2023-04-19T07:44:28.394Z,101964.91
2023-04-19T07:46:55.523Z,101960.31
2023-04-19T07:49:22.636Z,101963.94
2023-04-19T07:51:49.667Z,101952.38
2023-04-19T07:54:18.042Z,101948.78
2023-04-19T07:56:45.189Z,101952.22
2023-04-19T07:59:12.260Z,101940.56
2023-04-19T08:01:39.714Z,101943.28
2023-04-19T08:04:07.993Z,101939.63
2023-04-19T08:06:39.696Z,101935.53
2023-04-19T08:09:06.916Z,101929.44
2023-04-19T08:11:33.950Z,101928.94
2023-04-19T08:17:10.856Z,101928.75
2023-04-19T08:19:18.020Z,101922.03
2023-04-19T08:21:45.242Z,101929.22
2023-04-19T08:24:12.268Z,101922.47
2023-04-19T08:26:40.190Z,101927.09
2023-04-19T08:29:07.208Z,101916.50
2023-04-19T08:31:34.214Z,101935.38
2023-04-19T08:34:02.717Z,101911.88
2023-04-19T08:36:39.136Z,101917.66
2023-04-19T08:39:20.912Z,101916.97
2023-04-19T08:42:06.639Z,101919.56
2023-04-19T08:44:56.279Z,101904.72
2023-04-19T08:47:33.678Z,101914.00
2023-04-19T08:50:17.538Z,101907.25
2023-04-19T08:52:58.681Z,101895.94
2023-04-19T08:55:29.509Z,101885.91
2023-04-19T08:57:58.235Z,101882.09
2023-04-19T09:00:25.766Z,101880.97
2023-04-19T09:02:56.469Z,101874.66
2023-04-19T09:05:23.816Z,101871.56
2023-04-19T09:07:51.524Z,101871.16
2023-04-19T09:10:21.712Z,101862.88
2023-04-19T09:13:05.111Z,101853.56
2023-04-19T09:15:41.724Z,101851.69
2023-04-19T09:18:10.516Z,101859.28
2023-04-19T09:20:42.373Z,101832.97
2023-04-19T09:23:14.987Z,101835.44
2023-04-19T09:26:22.811Z,101830.66
2023-04-19T09:29:07.913Z,101829.81
2023-04-19T09:31:50.814Z,101841.63
2023-04-19T09:34:19.640Z,101830.34
2023-04-19T09:36:47.178Z,101832.03
2023-04-19T09:39:14.726Z,101827.75
2023-04-19T09:41:55.499Z,101829.88
2023-04-19T09:46:53.887Z,101810.44
2023-04-19T09:49:36.938Z,101826.16
2023-04-19T09:52:14.503Z,101815.44
2023-04-19T09:54:42.165Z,101806.00
2023-04-19T09:57:09.176Z,101806.34
2023-04-19T09:59:36.256Z,101804.72
2023-04-19T10:02:05.064Z,101799.59
2023-04-19T10:04:47.904Z,101809.88
2023-04-19T10:07:30.293Z,101803.03
2023-04-19T10:10:11.657Z,101804.38
2023-04-19T10:15:24.137Z,101783.84
2023-04-19T10:17:51.395Z,101796.56
2023-04-19T10:20:28.385Z,101787.13
2023-04-19T10:22:56.198Z,101788.19
2023-04-19T10:25:30.280Z,101779.44
2023-04-19T10:27:57.880Z,101784.44
2023-04-19T10:30:28.454Z,101761.28
2023-04-19T10:32:58.777Z,101783.28
2023-04-19T10:35:37.879Z,101773.47
2023-04-19T10:38:49.896Z,101762.44
2023-04-19T10:41:19.248Z,101742.81
2023-04-19T10:43:57.550Z,101752.19
2023-04-19T10:46:26.134Z,101760.47
2023-04-19T10:49:00.759Z,101755.00
2023-04-19T10:51:38.729Z,101749.56
2023-04-19T10:54:27.155Z,101752.56
2023-04-19T10:57:02.768Z,101755.88
2023-04-19T10:59:32.260Z,101749.00
2023-04-19T11:02:02.538Z,101739.81
2023-04-19T11:04:32.992Z,101751.31
2023-04-19T11:07:05.453Z,101739.66
2023-04-19T11:09:35.428Z,101741.97
2023-04-19T11:12:08.695Z,101744.28
2023-04-19T11:15:03.355Z,101746.88
2023-04-19T11:17:32.121Z,101739.53
2023-04-19T11:20:00.321Z,101730.00
2023-04-19T11:22:44.477Z,101724.84
2023-04-19T11:25:21.170Z,101729.50
2023-04-19T11:27:50.731Z,101719.94
2023-04-19T11:30:20.338Z,101731.84
2023-04-19T11:32:54.194Z,101737.00
2023-04-19T11:35:26.710Z,101726.19
2023-04-19T11:37:54.935Z,101717.19
2023-04-19T11:40:23.925Z,101727.78
2023-04-19T11:43:03.628Z,101729.34
2023-04-19T11:45:40.121Z,101731.28
2023-04-19T11:48:17.279Z,101735.88
2023-04-19T11:50:47.052Z,101728.88
2023-04-19T11:53:21.050Z,101739.88
2023-04-19T11:56:05.903Z,101724.63
2023-04-19T11:58:43.936Z,101730.66
2023-04-19T12:01:21.934Z,101716.38
2023-04-19T12:03:54.582Z,101713.72
2023-04-19T12:06:31.711Z,101729.09
2023-04-19T12:08:59.089Z,101710.66
2023-04-19T12:11:46.258Z,101710.63
2023-04-19T12:14:21.520Z,101733.00
2023-04-19T12:17:11.610Z,101727.63
2023-04-19T12:19:43.248Z,101720.66
2023-04-19T12:22:16.627Z,101721.41
2023-04-19T12:24:43.813Z,101718.81
2023-04-19T12:27:11.498Z,101726.75
2023-04-19T12:29:39.554Z,101715.94
2023-04-19T12:32:07.087Z,101706.47
2023-04-19T12:34:34.263Z,101702.97
2023-04-19T12:37:01.438Z,101707.56
2023-04-19T12:39:28.874Z,101691.22
2023-04-19T12:41:56.954Z,101693.31
2023-04-19T12:44:24.382Z,101689.16
2023-04-19T12:46:51.402Z,101681.50
2023-04-19T12:49:20.038Z,101668.44
2023-04-19T12:51:47.506Z,101669.81
2023-04-19T12:54:15.511Z,101662.78
2023-04-19T12:56:42.870Z,101667.69
2023-04-19T12:59:09.828Z,101666.56
2023-04-19T13:01:36.930Z,101652.69
2023-04-19T13:04:04.227Z,101655.03
2023-04-19T13:06:31.808Z,101656.19
2023-04-19T13:09:01.068Z,101649.34
2023-04-19T13:13:55.659Z,101636.66
2023-04-19T13:16:23.169Z,101614.22
2023-04-19T13:18:52.702Z,101613.56
2023-04-19T13:21:20.000Z,101602.19
2023-04-19T13:23:47.018Z,101602.78
2023-04-19T13:26:15.758Z,101604.94
2023-04-19T13:28:43.076Z,101603.88
2023-04-19T13:31:10.065Z,101614.56
2023-04-19T13:33:37.112Z,101623.09
2023-04-19T13:36:04.579Z,101606.88
2023-04-19T13:38:31.607Z,101603.06
2023-04-19T13:40:59.593Z,101604.94
2023-04-19T13:43:26.933Z,101617.09
2023-04-19T13:45:54.214Z,101619.44
2023-04-19T13:48:21.838Z,101604.84
2023-04-19T13:50:51.195Z,101627.75
2023-04-19T13:53:18.466Z,101627.25
2023-04-19T13:55:45.587Z,101637.81
2023-04-19T13:58:12.912Z,101628.47
2023-04-19T14:00:39.978Z,101635.97
2023-04-19T14:03:07.120Z,101620.34
2023-04-19T14:05:34.187Z,101632.09
2023-04-19T14:08:01.234Z,101630.28
2023-04-19T14:10:28.223Z,101630.06
2023-04-19T14:12:55.451Z,101627.19
2023-04-19T14:15:23.575Z,101628.06
2023-04-19T14:17:50.717Z,101616.34
2023-04-19T14:20:17.837Z,101621.16
2023-04-19T14:22:46.205Z,101604.81
2023-04-19T14:25:15.086Z,101602.06
2023-04-19T14:27:42.302Z,101603.63
2023-04-19T14:30:10.197Z,101593.56
2023-04-19T14:32:38.199Z,101596.22
2023-04-19T14:35:06.049Z,101586.63
2023-04-19T14:37:32.983Z,101590.91
2023-04-19T14:40:00.143Z,101580.25
2023-04-19T14:42:27.119Z,101573.50
2023-04-19T14:44:54.185Z,101579.09
2023-04-19T14:47:21.802Z,101587.06
2023-04-19T14:49:49.351Z,101585.25
2023-04-19T14:52:16.918Z,101578.09
2023-04-19T14:54:43.962Z,101571.66
2023-04-19T14:57:12.095Z,101577.22
2023-04-19T14:59:39.001Z,101571.03
2023-04-19T15:02:06.186Z,101577.84
2023-04-19T15:04:40.660Z,101578.69
2023-04-19T15:07:08.472Z,101575.72
2023-04-19T15:09:35.535Z,101586.22
2023-04-19T15:12:02.470Z,101604.56
2023-04-19T15:14:29.449Z,101605.59
2023-04-19T15:16:56.380Z,101613.59
2023-04-19T15:19:23.528Z,101620.88
2023-04-19T15:21:50.721Z,101634.13
2023-04-19T15:24:17.774Z,101638.56
2023-04-19T15:26:45.028Z,101634.13
2023-04-19T15:29:12.185Z,101638.72
2023-04-19T15:31:39.893Z,101643.75
2023-04-19T15:34:07.086Z,101648.69
2023-04-19T15:36:34.027Z,101651.88
2023-04-19T15:39:01.117Z,101657.50
2023-04-19T15:41:28.521Z,101650.09
2023-04-19T15:43:55.804Z,101648.19
2023-04-19T15:46:23.253Z,101648.50
2023-04-19T15:48:52.195Z,101647.66
2023-04-19T15:51:19.749Z,101645.91
2023-04-19T15:53:46.811Z,101648.69
2023-04-19T15:56:14.427Z,101646.31
2023-04-19T15:58:42.170Z,101649.91
2023-04-19T16:01:12.937Z,101639.47
2023-04-19T16:03:41.247Z,101655.56
2023-04-19T16:06:08.411Z,101645.94
2023-04-19T16:08:35.537Z,101641.88
2023-04-19T16:11:02.472Z,101630.16
2023-04-19T16:13:31.346Z,101620.75
2023-04-19T16:15:58.677Z,101634.75
2023-04-19T16:18:25.885Z,101621.41
2023-04-19T16:20:54.517Z,101611.78
2023-04-19T16:23:24.002Z,101623.09
2023-04-19T16:25:50.983Z,101613.63
2023-04-19T16:28:18.806Z,101604.59
2023-04-19T16:30:47.465Z,101598.66
2023-04-19T16:33:15.642Z,101609.56
2023-04-19T16:35:42.833Z,101608.13
2023-04-19T16:38:09.892Z,101602.16
2023-04-19T16:40:37.168Z,101600.94
2023-04-19T16:43:06.420Z,101609.97
2023-04-19T16:45:33.930Z,101604.44
2023-04-19T16:48:01.558Z,101594.38
2023-04-19T16:50:28.856Z,101594.41
2023-04-19T16:52:56.013Z,101588.88
2023-04-19T16:55:23.056Z,101590.53
2023-04-19T16:57:51.183Z,101590.13
2023-04-19T17:00:19.126Z,101561.75
2023-04-19T17:02:46.333Z,101552.91
2023-04-19T17:05:16.207Z,101552.31
2023-04-19T17:07:44.120Z,101555.59
2023-04-19T17:10:12.406Z,101549.03
2023-04-19T17:12:39.491Z,101553.34
2023-04-19T17:15:07.098Z,101553.16
2023-04-19T17:17:34.306Z,101550.28
2023-04-19T17:20:01.833Z,101551.13
2023-04-19T17:22:29.193Z,101539.84
2023-04-19T17:24:57.358Z,101556.69
2023-04-19T17:27:24.873Z,101556.88
2023-04-19T17:29:51.807Z,101556.69
2023-04-19T17:32:18.821Z,101547.25
2023-04-19T17:34:46.052Z,101548.28
2023-04-19T17:37:12.928Z,101566.38
2023-04-19T17:39:39.878Z,101566.16
2023-04-19T17:42:06.925Z,101554.47
2023-04-19T17:44:34.256Z,101552.41
2023-04-19T17:47:01.612Z,101563.09
2023-04-19T17:49:28.606Z,101563.50
2023-04-19T17:51:56.644Z,101560.00
2023-04-19T17:54:23.764Z,101558.34
2023-04-19T17:56:52.430Z,101558.56
2023-04-19T17:59:19.652Z,101567.59
2023-04-19T18:01:46.624Z,101553.03
2023-04-19T18:04:17.854Z,101568.22
2023-04-19T18:06:46.320Z,101568.63
2023-04-19T18:09:13.382Z,101571.09
2023-04-19T18:11:40.686Z,101568.63
2023-04-19T18:14:07.807Z,101559.19
2023-04-19T18:16:34.934Z,101568.84
2023-04-19T18:19:01.876Z,101573.34
2023-04-19T18:21:28.915Z,101570.47
2023-04-19T18:23:56.523Z,101577.47
2023-04-19T18:26:23.777Z,101576.03
2023-04-19T18:28:50.838Z,101569.47
2023-04-19T18:31:17.773Z,101572.94
2023-04-19T18:33:44.860Z,101583.78
2023-04-19T18:36:11.742Z,101578.28
2023-04-19T18:38:38.596Z,101575.41
2023-04-19T18:41:05.739Z,101577.63
2023-04-19T18:43:32.665Z,101575.78
2023-04-19T18:46:00.219Z,101589.94
2023-04-19T18:48:28.478Z,101588.97
2023-04-19T18:50:57.223Z,101586.91
2023-04-19T18:53:28.436Z,101587.13
2023-04-19T18:55:59.232Z,101586.69
2023-04-19T18:58:27.512Z,101590.59
2023-04-19T19:00:55.592Z,101592.88
2023-04-19T19:03:43.842Z,101590.81
2023-04-19T19:06:10.865Z,101589.16
2023-04-19T19:08:38.139Z,101583.41
2023-04-19T19:11:33.204Z,101597.38
2023-04-19T19:13:53.606Z,101601.91
2023-04-19T19:16:21.012Z,101593.06
2023-04-19T19:18:48.191Z,101601.47
2023-04-19T19:21:15.301Z,101599.84
2023-04-19T19:23:42.818Z,101602.91
2023-04-19T19:26:14.553Z,101599.00
2023-04-19T19:28:42.185Z,101598.00
2023-04-19T19:31:09.710Z,101597.38
2023-04-19T19:36:05.391Z,101593.47
2023-04-19T19:38:36.081Z,101593.72
2023-04-19T19:43:36.105Z,101614.03
2023-04-19T19:46:03.646Z,101614.84
2023-04-19T19:48:37.117Z,101610.13
2023-04-19T19:51:36.336Z,101617.13
2023-04-19T19:53:54.215Z,101609.94
2023-04-19T19:56:23.882Z,101611.38
2023-04-19T19:58:51.988Z,101613.63
2023-04-19T20:01:22.376Z,101615.25
2023-04-19T20:03:50.654Z,101608.69
2023-04-19T20:07:13.468Z,101623.91
2023-04-19T20:09:05.070Z,101624.91
2023-04-19T20:11:31.965Z,101623.91
2023-04-19T20:13:58.899Z,101630.84
2023-04-19T20:16:26.590Z,101635.41
2023-04-19T20:18:54.567Z,101623.06
2023-04-19T20:21:21.601Z,101632.94
2023-04-19T20:23:48.655Z,101623.47
2023-04-19T20:26:15.662Z,101614.44
2023-04-19T20:28:42.600Z,101620.59
2023-04-19T20:31:10.143Z,101622.25
2023-04-19T20:33:37.219Z,101615.66
2023-04-19T20:36:04.295Z,101621.63
2023-04-19T20:38:32.167Z,101618.31
2023-04-19T20:40:59.261Z,101613.41
2023-04-19T20:43:26.246Z,101622.66
2023-04-19T20:45:53.172Z,101618.13
2023-04-19T20:48:20.326Z,101616.47
2023-04-19T20:50:47.375Z,101620.59
2023-04-19T20:53:14.215Z,101632.72
2023-04-19T20:55:42.098Z,101614.41
2023-04-19T20:58:10.085Z,101621.59
2023-04-19T21:00:37.073Z,101613.59
2023-04-19T21:03:06.619Z,101615.44
2023-04-19T21:05:35.114Z,101615.66
2023-04-19T21:08:03.125Z,101615.66
2023-04-19T21:10:30.253Z,101619.34
2023-04-19T21:12:57.242Z,101616.88
2023-04-19T21:15:24.265Z,101615.66
2023-04-19T21:17:51.416Z,101624.69
2023-04-19T21:20:18.370Z,101626.75
2023-04-19T21:22:47.167Z,101634.75
2023-04-19T21:25:14.313Z,101631.25
2023-04-19T21:27:42.190Z,101626.75
2023-04-19T21:30:10.482Z,101634.53
2023-04-19T21:32:37.500Z,101627.56
2023-04-19T21:35:04.940Z,101632.91
2023-04-19T21:37:32.074Z,101642.34
2023-04-19T21:39:59.034Z,101625.50
2023-04-19T21:42:26.140Z,101635.97
2023-04-19T21:44:53.040Z,101635.78
2023-04-19T21:47:20.125Z,101637.22
2023-04-19T21:49:47.180Z,101631.66
2023-04-19T21:52:14.264Z,101640.91
2023-04-19T21:54:41.608Z,101635.78
2023-04-19T21:57:08.956Z,101640.72
2023-04-19T21:59:36.700Z,101646.25
2023-04-19T22:02:03.988Z,101653.44
2023-04-19T22:04:31.719Z,101646.66
2023-04-19T22:07:02.785Z,101650.38
2023-04-19T22:09:30.698Z,101646.47
2023-04-19T22:11:57.782Z,101640.94
2023-04-19T22:14:24.743Z,101641.13
2023-04-19T22:16:53.735Z,101650.38
2023-04-19T22:19:21.103Z,101646.88
2023-04-19T22:21:48.368Z,101636.19
2023-04-19T22:24:15.750Z,101631.28
2023-04-19T22:26:42.722Z,101627.78
2023-04-19T22:29:09.764Z,101637.84
2023-04-19T22:31:36.880Z,101610.09
2023-04-19T22:34:03.872Z,101618.94
2023-04-19T22:36:31.215Z,101623.66
2023-04-19T22:38:58.178Z,101632.69
2023-04-19T22:41:25.173Z,101630.22
2023-04-19T22:43:52.393Z,101631.88
2023-04-19T22:46:19.288Z,101627.56
2023-04-19T22:48:48.352Z,101626.53
2023-04-19T22:51:18.353Z,101617.50
2023-04-19T22:53:45.567Z,101621.19
2023-04-19T22:56:12.695Z,101624.28
2023-04-19T22:58:39.663Z,101621.38
2023-04-19T23:01:06.796Z,101619.75
2023-04-19T23:03:34.411Z,101627.34
2023-04-19T23:06:03.486Z,101631.03
2023-04-19T23:08:35.897Z,101637.00
2023-04-19T23:11:02.824Z,101627.75
2023-04-19T23:13:30.152Z,101623.84
2023-04-19T23:15:57.117Z,101616.47
2023-04-19T23:18:24.277Z,101624.06
2023-04-19T23:20:51.322Z,101617.69
2023-04-19T23:23:20.361Z,101615.00
2023-04-19T23:25:47.267Z,101616.03
2023-04-19T23:28:14.147Z,101618.50
2023-04-19T23:30:41.094Z,101612.97
2023-04-19T23:33:08.125Z,101607.41
2023-04-19T23:35:35.389Z,101609.47
2023-04-19T23:38:02.248Z,101609.47
2023-04-19T23:40:29.293Z,101610.06
2023-04-19T23:42:56.427Z,101605.75
2023-04-19T23:45:23.603Z,101600.41
2023-04-19T23:47:50.731Z,101597.75
2023-04-19T23:50:17.707Z,101600.81
2023-04-19T23:52:44.600Z,101589.53
2023-04-19T23:55:12.441Z,101603.69
2023-04-19T23:57:39.740Z,101601.84
